createdAt,value
2017-06-02T00:00:15.339Z,0.39
2017-06-02T00:00:55.881Z,0
2017-06-02T00:01:36.372Z,99.99
2017-06-02T00:02:16.866Z,0
2017-06-02T00:02:57.334Z,3.43
2017-06-02T00:03:37.841Z,0
2017-06-02T00:04:18.334Z,29.41
2017-06-02T00:04:58.823Z,99.99
2017-06-02T00:05:39.359Z,99.99
2017-06-02T00:06:19.849Z,0
2017-06-02T00:07:00.358Z,0.78
2017-06-02T00:07:40.835Z,99.99
2017-06-02T00:08:21.332Z,29.48
2017-06-02T00:09:01.817Z,3.43
2017-06-02T00:09:42.297Z,99.99
2017-06-02T00:10:22.816Z,0
2017-06-02T00:11:03.311Z,99.99
2017-06-02T00:11:43.778Z,99.99
2017-06-02T00:12:24.244Z,99.99
2017-06-02T00:13:04.794Z,0
2017-06-02T00:13:45.316Z,99.99
2017-06-02T00:14:25.784Z,0
2017-06-02T00:15:06.286Z,0
2017-06-02T00:15:46.767Z,99.99
2017-06-02T00:16:27.263Z,29.03
2017-06-02T00:18:25.367Z,99.99
2017-06-02T00:19:05.833Z,99.99
2017-06-02T00:19:46.338Z,99.99
2017-06-02T00:20:26.827Z,99.99
2017-06-02T00:21:07.318Z,99.99
2017-06-02T00:21:47.838Z,99.99
2017-06-02T00:22:28.316Z,99.99
2017-06-02T00:23:08.792Z,99.99
2017-06-02T00:23:49.279Z,99.99
2017-06-02T00:24:29.791Z,99.99
2017-06-02T00:25:10.295Z,0
2017-06-02T00:25:50.745Z,0
2017-06-02T00:26:31.244Z,0
2017-06-02T00:27:11.723Z,99.99
2017-06-02T00:27:52.218Z,99.99
2017-06-02T00:28:32.692Z,99.99
2017-06-02T00:29:13.152Z,29.12
2017-06-02T00:29:53.648Z,0
2017-06-02T00:30:34.151Z,99.99
2017-06-02T00:31:14.653Z,28.66
2017-06-02T00:31:55.104Z,99.99
2017-06-02T00:32:35.618Z,99.99
2017-06-02T00:33:16.107Z,99.99
2017-06-02T00:33:56.606Z,99.99
2017-06-02T00:34:37.111Z,99.99
2017-06-02T00:35:17.629Z,99.99
2017-06-02T00:35:58.158Z,99.99
2017-06-02T00:36:38.630Z,99.99
2017-06-02T00:37:19.147Z,0
2017-06-02T00:37:59.625Z,0
2017-06-02T00:38:40.101Z,99.99
2017-06-02T00:39:20.600Z,99.99
2017-06-02T00:40:01.080Z,99.99
2017-06-02T00:40:41.574Z,99.99
2017-06-02T00:41:22.054Z,3.43
2017-06-02T00:42:02.558Z,0
2017-06-02T00:42:43.073Z,3.43
2017-06-02T00:43:23.603Z,0
2017-06-02T00:44:04.073Z,3.43
2017-06-02T00:44:44.595Z,0
2017-06-02T00:45:25.064Z,0
2017-06-02T00:46:05.573Z,3.43
2017-06-02T00:46:46.063Z,99.99
2017-06-02T00:47:26.537Z,0
2017-06-02T00:48:07.044Z,0
2017-06-02T00:48:47.571Z,99.99
2017-06-02T00:49:28.146Z,0
2017-06-02T00:50:08.620Z,99.99
2017-06-02T00:50:49.111Z,3.43
2017-06-02T00:51:29.595Z,0
2017-06-02T00:52:10.137Z,0
2017-06-02T00:52:50.642Z,99.99
2017-06-02T00:53:31.130Z,0
2017-06-02T00:54:11.647Z,0
2017-06-02T00:54:52.140Z,0.01
2017-06-02T00:55:32.627Z,0
2017-06-02T00:56:13.149Z,3.43
2017-06-02T00:56:53.634Z,0
2017-06-02T00:57:34.267Z,3.43
2017-06-02T00:58:14.731Z,3.43
2017-06-02T00:58:55.242Z,0
2017-06-02T00:59:35.734Z,0
2017-06-02T01:00:16.251Z,0
2017-06-02T01:00:56.774Z,0
2017-06-02T01:01:37.280Z,0
2017-06-02T01:02:17.789Z,0
2017-06-02T01:02:58.335Z,99.99
2017-06-02T01:03:38.797Z,99.99
2017-06-02T01:04:19.339Z,99.99
2017-06-02T01:04:59.822Z,99.99
2017-06-02T01:05:40.321Z,99.99
2017-06-02T01:06:20.884Z,99.99
2017-06-02T01:07:01.429Z,99.99
2017-06-02T01:07:41.909Z,99.99
2017-06-02T01:08:22.383Z,99.99
2017-06-02T01:09:02.901Z,99.99
2017-06-02T01:09:43.421Z,99.99
2017-06-02T01:10:23.900Z,99.99
2017-06-02T01:11:04.366Z,0
2017-06-02T01:11:44.856Z,0
2017-06-02T01:12:25.327Z,3.43
2017-06-02T01:13:05.813Z,0.39
2017-06-02T01:13:46.287Z,3.43
2017-06-02T01:14:26.786Z,0.39
2017-06-02T01:15:07.272Z,3.43
2017-06-02T01:15:47.753Z,0
2017-06-02T01:16:28.241Z,0.39
2017-06-02T01:17:08.723Z,3.43
2017-06-02T01:17:49.225Z,99.99
2017-06-02T01:18:29.717Z,0
2017-06-02T01:19:10.220Z,3.43
2017-06-02T01:19:50.737Z,0
2017-06-02T01:20:31.204Z,99.99
2017-06-02T01:21:11.743Z,99.99
2017-06-02T01:21:52.251Z,99.99
2017-06-02T01:22:32.717Z,99.99
2017-06-02T01:23:13.236Z,99.99
2017-06-02T01:23:53.726Z,99.99
2017-06-02T01:24:34.212Z,99.99
2017-06-02T01:25:14.682Z,99.99
2017-06-02T01:25:55.209Z,99.99
2017-06-02T01:26:35.694Z,99.99
2017-06-02T01:27:16.231Z,99.99
2017-06-02T01:27:56.751Z,3.43
2017-06-02T01:28:37.273Z,99.99
2017-06-02T01:29:17.774Z,99.99
2017-06-02T01:29:58.309Z,99.99
2017-06-02T01:30:38.800Z,99.99
2017-06-02T01:31:19.314Z,3.43
2017-06-02T01:31:59.806Z,0
2017-06-02T01:32:40.293Z,0
2017-06-02T01:33:20.785Z,0
2017-06-02T01:34:01.254Z,3.43
2017-06-02T01:34:41.777Z,3.43
2017-06-02T01:35:22.238Z,0
2017-06-02T01:36:02.741Z,3.43
2017-06-02T01:36:43.247Z,0
2017-06-02T01:37:23.758Z,0
2017-06-02T01:38:04.262Z,3.43
2017-06-02T01:38:44.759Z,0
2017-06-02T01:39:25.258Z,3.43
2017-06-02T01:40:05.738Z,0
2017-06-02T01:40:46.234Z,98.88
2017-06-02T01:41:26.746Z,3.43
2017-06-02T01:43:24.859Z,3.43
2017-06-02T01:44:05.325Z,0
2017-06-02T01:44:45.813Z,0.19
2017-06-02T01:45:26.336Z,0.78
2017-06-02T01:46:06.823Z,0
2017-06-02T01:46:47.321Z,0
2017-06-02T01:47:27.817Z,0
2017-06-02T01:48:08.355Z,3.43
2017-06-02T01:48:48.858Z,0
2017-06-02T01:49:29.366Z,0
2017-06-02T01:50:09.864Z,28.86
2017-06-02T01:50:50.354Z,0
2017-06-02T01:51:30.845Z,0
2017-06-02T01:52:11.309Z,0.02
2017-06-02T01:52:51.810Z,3.43
2017-06-02T01:53:32.336Z,0
2017-06-02T01:54:12.831Z,3.43
2017-06-02T01:54:53.396Z,0
2017-06-02T01:55:33.899Z,0
2017-06-02T01:56:14.420Z,0
2017-06-02T01:56:54.936Z,0
2017-06-02T01:57:35.456Z,3.43
2017-06-02T01:58:15.954Z,0
2017-06-02T01:58:56.459Z,3.43
2017-06-02T01:59:36.957Z,0
2017-06-02T02:00:17.467Z,3.43
2017-06-02T02:00:57.978Z,0
2017-06-02T02:01:38.531Z,0
2017-06-02T02:02:19.021Z,0
2017-06-02T02:02:59.529Z,0
2017-06-02T02:03:40.039Z,0
2017-06-02T02:04:20.509Z,0
2017-06-02T02:05:01.007Z,0.39
2017-06-02T02:05:41.507Z,0
2017-06-02T02:06:22.005Z,0
2017-06-02T02:07:02.493Z,0
2017-06-02T02:07:42.979Z,0
2017-06-02T02:08:23.542Z,0
2017-06-02T02:09:04.050Z,0
2017-06-02T02:09:44.541Z,0
2017-06-02T02:10:25.032Z,0.78
2017-06-02T02:11:05.516Z,0
2017-06-02T02:11:46.026Z,0
2017-06-02T02:12:26.539Z,0
2017-06-02T02:13:07.056Z,98.55
2017-06-02T02:13:47.557Z,0.39
2017-06-02T02:14:28.081Z,3.43
2017-06-02T02:15:08.578Z,0
2017-06-02T02:15:49.086Z,0
2017-06-02T02:16:29.622Z,0
2017-06-02T02:17:10.152Z,3.43
2017-06-02T02:17:50.702Z,0
2017-06-02T02:18:31.232Z,3.12
2017-06-02T02:19:11.727Z,50
2017-06-02T02:19:52.213Z,0.78
2017-06-02T02:20:32.700Z,0
2017-06-02T02:21:13.230Z,3.43
2017-06-02T02:21:53.751Z,0
2017-06-02T02:22:34.254Z,3.43
2017-06-02T02:23:14.755Z,0
2017-06-02T02:23:55.256Z,0
2017-06-02T02:24:35.767Z,0
2017-06-02T02:25:16.277Z,0
2017-06-02T02:27:14.482Z,0
2017-06-02T02:27:54.884Z,0
2017-06-02T02:28:35.373Z,0
2017-06-02T02:29:15.882Z,3.43
2017-06-02T02:29:56.390Z,0
2017-06-02T02:30:36.902Z,0
2017-06-02T02:31:17.391Z,3.43
2017-06-02T02:31:57.889Z,0.78
2017-06-02T02:32:38.367Z,3.43
2017-06-02T02:33:18.872Z,0
2017-06-02T02:33:59.375Z,0
2017-06-02T02:34:39.873Z,3.43
2017-06-02T02:35:20.394Z,0
2017-06-02T02:36:00.903Z,0
2017-06-02T02:36:41.433Z,0
2017-06-02T02:37:21.930Z,0
2017-06-02T02:38:02.462Z,1.56
2017-06-02T02:38:42.984Z,0
2017-06-02T02:39:23.469Z,0
2017-06-02T02:40:03.980Z,0
2017-06-02T02:40:44.507Z,3.43
2017-06-02T02:41:24.983Z,3.43
2017-06-02T02:42:05.518Z,12.5
2017-06-02T02:42:46.029Z,0
2017-06-02T02:43:26.522Z,3.43
2017-06-02T02:44:07.025Z,3.43
2017-06-02T02:44:47.517Z,99.99
2017-06-02T02:45:28.016Z,99.99
2017-06-02T02:46:08.554Z,100
2017-06-02T02:46:49.065Z,0
2017-06-02T02:47:29.575Z,0
2017-06-02T02:48:10.067Z,99.99
2017-06-02T02:48:50.563Z,99.99
2017-06-02T02:49:31.086Z,99.99
2017-06-02T02:50:11.601Z,99.99
2017-06-02T02:50:52.094Z,99.99
2017-06-02T02:51:32.593Z,99.99
2017-06-02T02:52:13.105Z,99.99
2017-06-02T02:52:53.627Z,99.99
2017-06-02T02:53:34.127Z,99.99
2017-06-02T02:54:14.652Z,99.99
2017-06-02T02:54:55.162Z,0
2017-06-02T02:55:35.657Z,99.99
2017-06-02T02:56:16.133Z,0
2017-06-02T02:56:56.646Z,3.12
2017-06-02T02:57:37.124Z,0
2017-06-02T02:58:17.684Z,3.43
2017-06-02T02:58:58.144Z,0
2017-06-02T02:59:38.660Z,0.19
2017-06-02T03:00:19.186Z,99.99
2017-06-02T03:00:59.713Z,3.43
2017-06-02T03:01:40.200Z,3.43
2017-06-02T03:02:20.697Z,3.43
2017-06-02T03:03:01.192Z,0.19
2017-06-02T03:03:41.714Z,0
2017-06-02T03:04:22.223Z,6.25
2017-06-02T03:05:02.735Z,0.39
2017-06-02T03:05:43.272Z,3.43
2017-06-02T03:06:23.787Z,99.99
2017-06-02T03:07:04.286Z,3.43
2017-06-02T03:07:44.789Z,3.43
2017-06-02T03:08:25.304Z,0
2017-06-02T03:09:05.852Z,0
2017-06-02T03:09:46.350Z,0
2017-06-02T03:10:26.865Z,0
2017-06-02T03:11:07.337Z,0
2017-06-02T03:11:47.882Z,0
2017-06-02T03:12:28.368Z,0.39
2017-06-02T03:13:08.897Z,0
2017-06-02T03:13:49.392Z,0.39
2017-06-02T03:14:29.905Z,0
2017-06-02T03:15:10.432Z,3.43
2017-06-02T03:15:50.927Z,99.99
2017-06-02T03:16:31.423Z,0
2017-06-02T03:17:11.960Z,0
2017-06-02T03:17:52.463Z,0
2017-06-02T03:18:32.988Z,0
2017-06-02T03:19:13.493Z,0
2017-06-02T03:19:54.043Z,3.43
2017-06-02T03:20:34.566Z,0
2017-06-02T03:21:15.034Z,3.43
2017-06-02T03:21:55.562Z,3.43
2017-06-02T03:22:36.081Z,3.43
2017-06-02T03:23:16.583Z,0
2017-06-02T03:23:57.081Z,3.43
2017-06-02T03:24:37.578Z,3.43
2017-06-02T03:25:18.080Z,0
2017-06-02T03:25:58.590Z,0
2017-06-02T03:26:39.114Z,0.1
2017-06-02T03:27:19.626Z,0
2017-06-02T03:28:00.188Z,100
2017-06-02T03:28:40.683Z,0
2017-06-02T03:29:21.199Z,0
2017-06-02T03:30:01.713Z,0
2017-06-02T03:30:42.218Z,0
2017-06-02T03:31:22.709Z,0
2017-06-02T03:32:03.214Z,0
2017-06-02T03:32:43.755Z,0
2017-06-02T03:33:24.245Z,0
2017-06-02T03:34:04.787Z,0
2017-06-02T03:34:45.303Z,0
2017-06-02T03:35:25.802Z,12.5
2017-06-02T03:36:06.281Z,99.99
2017-06-02T03:36:46.758Z,99.99
2017-06-02T03:37:27.251Z,99.99
2017-06-02T03:38:07.757Z,28.38
2017-06-02T03:38:48.260Z,0
2017-06-02T03:39:28.789Z,0
2017-06-02T03:40:09.243Z,6.25
2017-06-02T03:40:49.729Z,1.56
2017-06-02T03:41:30.214Z,0
2017-06-02T03:42:10.697Z,99.99
2017-06-02T03:42:51.185Z,0
2017-06-02T03:43:31.644Z,0
2017-06-02T03:44:12.163Z,100
2017-06-02T03:44:52.625Z,0
2017-06-02T03:45:33.114Z,3.43
2017-06-02T03:46:13.586Z,0.39
2017-06-02T03:46:54.056Z,0
2017-06-02T03:47:34.539Z,0
2017-06-02T03:48:14.999Z,0
2017-06-02T03:48:55.470Z,3.43
2017-06-02T03:49:35.973Z,0
2017-06-02T03:50:16.457Z,3.43
2017-06-02T03:50:56.955Z,0
2017-06-02T03:51:37.428Z,0
2017-06-02T03:52:17.947Z,0
2017-06-02T03:52:58.428Z,0
2017-06-02T03:53:38.958Z,3.43
2017-06-02T03:54:19.449Z,3.43
2017-06-02T03:54:59.970Z,0
2017-06-02T03:55:40.424Z,28.22
2017-06-02T03:56:20.916Z,3.43
2017-06-02T03:57:01.395Z,3.43
2017-06-02T03:57:41.918Z,50
2017-06-02T03:58:22.420Z,3.43
2017-06-02T03:59:02.909Z,99.99
2017-06-02T03:59:43.416Z,99.99
2017-06-02T04:00:23.919Z,99.99
2017-06-02T04:01:04.387Z,0
2017-06-02T04:01:44.872Z,3.43
2017-06-02T04:02:25.357Z,0
2017-06-02T04:03:05.842Z,0
2017-06-02T04:03:46.316Z,3.43
2017-06-02T04:04:26.803Z,0
2017-06-02T04:05:07.301Z,0
2017-06-02T04:05:47.767Z,0
2017-06-02T04:06:28.269Z,0
2017-06-02T04:07:08.726Z,0
2017-06-02T04:07:49.214Z,99.99
2017-06-02T04:08:29.720Z,0
2017-06-02T04:09:10.175Z,0
2017-06-02T04:09:50.693Z,28.19
2017-06-02T04:10:31.157Z,100
2017-06-02T04:11:11.654Z,3.43
2017-06-02T04:11:52.151Z,0
2017-06-02T04:12:32.645Z,3.43
2017-06-02T04:13:13.137Z,0
2017-06-02T04:13:53.634Z,0
2017-06-02T04:14:34.150Z,3.43
2017-06-02T04:15:14.618Z,3.43
2017-06-02T04:15:55.168Z,0.39
2017-06-02T04:16:35.710Z,99.99
2017-06-02T04:17:16.214Z,99.99
2017-06-02T04:17:56.712Z,99.99
2017-06-02T04:18:37.310Z,99.99
2017-06-02T04:19:17.848Z,99.99
2017-06-02T04:19:58.423Z,0
2017-06-02T04:20:38.955Z,0
2017-06-02T04:21:19.467Z,28.41
2017-06-02T04:21:59.996Z,28.41
2017-06-02T04:22:40.544Z,99.99
2017-06-02T04:23:21.118Z,99.99
2017-06-02T04:24:01.650Z,99.99
2017-06-02T04:24:42.155Z,99.99
2017-06-02T04:25:22.694Z,99.99
2017-06-02T04:33:32.301Z,99.99
2017-06-02T04:34:12.765Z,99.99
2017-06-02T04:34:53.330Z,99.99
2017-06-02T04:35:33.888Z,99.99
2017-06-02T04:36:14.413Z,99.99
2017-06-02T04:36:54.904Z,99.99
2017-06-02T04:37:35.408Z,99.99
2017-06-02T04:38:15.865Z,99.99
2017-06-02T04:38:56.379Z,99.99
2017-06-02T04:39:36.843Z,99.99
2017-06-02T04:40:17.363Z,99.99
2017-06-02T04:40:57.856Z,99.99
2017-06-02T04:41:38.358Z,99.99
2017-06-02T04:42:18.844Z,99.99
2017-06-02T04:42:59.327Z,99.99
2017-06-02T04:43:39.811Z,99.99
2017-06-02T04:44:20.296Z,99.99
2017-06-02T04:45:00.844Z,99.99
2017-06-02T04:45:41.316Z,99.99
2017-06-02T04:46:21.849Z,99.99
2017-06-02T04:47:02.354Z,99.99
2017-06-02T04:47:42.847Z,99.99
2017-06-02T04:48:23.365Z,99.99
2017-06-02T04:49:03.847Z,99.99
2017-06-02T04:49:44.360Z,99.99
2017-06-02T04:50:24.842Z,99.99
2017-06-02T04:51:05.339Z,99.99
2017-06-02T04:51:45.809Z,99.99
2017-06-02T04:52:26.357Z,99.99
2017-06-02T04:53:06.848Z,99.99
2017-06-02T04:53:47.403Z,99.99
2017-06-02T04:54:27.861Z,99.99
2017-06-02T04:55:08.396Z,99.99
2017-06-02T04:55:48.853Z,99.99
2017-06-02T04:56:29.306Z,99.99
2017-06-02T04:57:09.800Z,99.99
2017-06-02T04:57:50.287Z,99.99
2017-06-02T04:58:30.767Z,99.99
2017-06-02T04:59:11.261Z,99.99
2017-06-02T04:59:52.345Z,99.99
2017-06-02T05:00:32.814Z,99.99
2017-06-02T05:01:13.300Z,99.99
2017-06-02T05:01:53.808Z,99.99
2017-06-02T05:02:34.487Z,99.99
2017-06-02T05:03:15.309Z,99.99
2017-06-02T05:03:56.280Z,99.99
2017-06-02T05:04:36.724Z,99.99
2017-06-02T05:05:17.236Z,99.99
2017-06-02T05:05:57.741Z,99.99
2017-06-02T05:06:38.218Z,99.99
2017-06-02T05:07:18.721Z,99.99
2017-06-02T05:07:59.382Z,99.99
2017-06-02T05:08:39.850Z,99.97
2017-06-02T05:09:20.318Z,99.69
2017-06-02T05:10:00.796Z,99.4
2017-06-02T05:10:41.255Z,99.21
2017-06-02T05:11:21.759Z,98.93
2017-06-02T05:12:02.265Z,98.69
2017-06-02T05:12:42.765Z,98.5
2017-06-02T05:13:23.275Z,98.31
2017-06-02T05:14:03.749Z,98.03
2017-06-02T05:14:44.247Z,98.03
2017-06-02T05:15:24.709Z,98.12
2017-06-02T05:16:05.243Z,98.31
2017-06-02T05:16:45.728Z,98.5
2017-06-02T05:17:26.194Z,98.6
2017-06-02T05:18:06.669Z,98.79
2017-06-02T05:18:47.193Z,98.97
2017-06-02T05:19:27.693Z,99.07
2017-06-02T05:20:08.171Z,99.16
2017-06-02T05:20:48.652Z,99.36
2017-06-02T05:21:29.201Z,99.36
2017-06-02T05:22:09.686Z,99.45
2017-06-02T05:22:50.156Z,99.45
2017-06-02T05:23:30.669Z,99.55
2017-06-02T05:24:11.219Z,99.64
2017-06-02T05:24:51.702Z,99.64
2017-06-02T05:25:32.205Z,99.74
2017-06-02T05:26:12.659Z,99.74
2017-06-02T05:26:53.137Z,99.84
2017-06-02T05:27:33.663Z,99.84
2017-06-02T05:28:14.198Z,99.93
2017-06-02T05:28:54.722Z,99.99
2017-06-02T05:29:35.183Z,99.99
2017-06-02T05:30:15.730Z,99.99
2017-06-02T05:30:56.195Z,99.99
2017-06-02T05:31:36.673Z,99.99
2017-06-02T05:32:17.225Z,99.99
2017-06-02T05:32:57.689Z,99.99
2017-06-02T05:33:38.161Z,99.99
2017-06-02T05:34:18.694Z,99.99
2017-06-02T05:34:59.147Z,99.99
2017-06-02T05:35:39.615Z,99.99
2017-06-02T05:36:20.095Z,99.99
2017-06-02T05:37:00.541Z,99.99
2017-06-02T05:37:41.041Z,99.99
2017-06-02T05:38:21.542Z,99.99
2017-06-02T05:39:02.008Z,99.99
2017-06-02T05:39:42.514Z,99.99
2017-06-02T05:40:23.034Z,99.99
2017-06-02T05:41:03.474Z,99.99
2017-06-02T05:41:43.969Z,99.99
2017-06-02T05:42:24.508Z,99.99
2017-06-02T05:43:05.038Z,99.99
2017-06-02T05:43:45.507Z,99.99
2017-06-02T05:44:26.014Z,99.99
2017-06-02T05:45:06.501Z,99.99
2017-06-02T05:45:47.032Z,99.99
2017-06-02T05:46:27.557Z,99.99
2017-06-02T05:47:08.047Z,99.99
2017-06-02T05:47:48.550Z,99.99
2017-06-02T05:48:29.105Z,99.99
2017-06-02T05:49:09.591Z,99.99
2017-06-02T05:49:50.052Z,99.99
2017-06-02T05:50:30.581Z,99.99
2017-06-02T05:51:11.147Z,99.99
2017-06-02T05:51:51.580Z,99.99
2017-06-02T05:52:32.055Z,99.99
2017-06-02T05:53:12.575Z,99.99
2017-06-02T05:53:53.212Z,99.99
2017-06-02T05:54:33.723Z,99.99
2017-06-02T05:55:14.334Z,99.99
2017-06-02T05:55:54.756Z,99.99
2017-06-02T05:56:35.306Z,99.99
2017-06-02T05:57:15.748Z,99.99
2017-06-02T05:57:56.220Z,99.99
2017-06-02T05:58:36.712Z,99.99
2017-06-02T05:59:17.237Z,99.99
2017-06-02T05:59:57.714Z,99.99
2017-06-02T06:00:38.226Z,99.99
2017-06-02T06:01:18.742Z,99.99
2017-06-02T06:01:59.192Z,99.99
2017-06-02T06:02:39.673Z,99.99
2017-06-02T06:03:20.187Z,99.99
2017-06-02T06:04:00.731Z,99.99
2017-06-02T06:04:41.231Z,99.99
2017-06-02T06:05:21.733Z,99.99
2017-06-02T06:06:02.255Z,99.99
2017-06-02T06:06:42.808Z,99.99
2017-06-02T06:07:23.335Z,99.99
2017-06-02T06:08:03.799Z,99.99
2017-06-02T06:08:44.303Z,99.99
2017-06-02T06:09:24.787Z,99.99
2017-06-02T06:10:05.393Z,99.99
2017-06-02T06:10:45.865Z,99.99
2017-06-02T06:11:26.354Z,99.99
2017-06-02T06:12:06.817Z,99.99
2017-06-02T06:12:47.366Z,99.99
2017-06-02T06:13:27.860Z,99.99
2017-06-02T06:14:08.361Z,99.99
2017-06-02T06:14:48.824Z,99.99
2017-06-02T06:15:29.272Z,99.99
2017-06-02T06:16:09.755Z,99.99
2017-06-02T06:16:50.212Z,99.99
2017-06-02T06:17:30.723Z,99.99
2017-06-02T06:18:11.167Z,99.99
2017-06-02T06:18:51.669Z,99.99
2017-06-02T06:19:32.114Z,99.99
2017-06-02T06:20:12.685Z,99.99
2017-06-02T06:20:53.177Z,99.99
2017-06-02T06:21:33.692Z,99.99
2017-06-02T06:22:14.162Z,99.99
2017-06-02T06:22:54.625Z,99.99
2017-06-02T06:23:35.108Z,99.99
2017-06-02T06:24:15.614Z,99.99
2017-06-02T06:24:56.166Z,99.99
2017-06-02T06:25:36.672Z,99.99
2017-06-02T06:26:17.200Z,99.99
2017-06-02T06:26:57.688Z,99.99
2017-06-02T06:27:38.208Z,99.99
2017-06-02T06:28:18.720Z,99.99
2017-06-02T06:28:59.178Z,99.99
2017-06-02T06:29:39.674Z,99.99
2017-06-02T06:30:20.177Z,99.99
2017-06-02T06:31:00.685Z,99.99
2017-06-02T06:31:41.254Z,99.99
2017-06-02T06:32:21.753Z,99.99
2017-06-02T06:33:02.339Z,99.99
2017-06-02T06:33:42.782Z,99.99
2017-06-02T06:34:23.271Z,99.99
2017-06-02T06:35:03.795Z,99.99
2017-06-02T06:35:44.244Z,99.99
2017-06-02T06:36:24.765Z,99.99
2017-06-02T06:37:05.331Z,99.99
2017-06-02T06:37:45.888Z,99.99
2017-06-02T06:38:26.375Z,99.99
2017-06-02T06:39:06.938Z,99.99
2017-06-02T06:39:47.427Z,99.99
2017-06-02T06:40:27.968Z,99.99
2017-06-02T06:41:08.475Z,99.99
2017-06-02T06:41:49.082Z,99.99
2017-06-02T06:42:29.538Z,99.99
2017-06-02T06:43:10.013Z,99.99
2017-06-02T06:43:50.493Z,99.99
2017-06-02T06:44:30.988Z,99.99
2017-06-02T06:45:11.465Z,99.99
2017-06-02T06:45:52.073Z,99.99
2017-06-02T06:46:32.547Z,99.99
2017-06-02T06:47:13.030Z,99.99
2017-06-02T06:47:53.555Z,99.99
2017-06-02T06:48:34.351Z,99.99
2017-06-02T06:49:15.022Z,99.99
2017-06-02T06:49:55.493Z,99.99
2017-06-02T06:50:36.021Z,99.99
2017-06-02T06:51:16.461Z,99.99
2017-06-02T06:51:57.059Z,99.99
2017-06-02T06:52:37.586Z,3.43
2017-06-02T06:53:18.075Z,99.99
2017-06-02T06:53:58.581Z,99.99
2017-06-02T06:54:39.054Z,99.99
2017-06-02T06:55:19.653Z,99.99
2017-06-02T06:56:00.146Z,99.99
2017-06-02T06:56:41.316Z,99.99
2017-06-02T06:57:23.067Z,99.99
2017-06-02T06:58:03.533Z,99.99
2017-06-02T06:58:44.052Z,99.99
2017-06-02T06:59:24.519Z,99.99
2017-06-02T07:00:04.998Z,99.99
2017-06-02T07:00:45.459Z,99.99
2017-06-02T07:01:25.964Z,99.99
2017-06-02T07:02:06.466Z,99.99
2017-06-02T07:02:46.989Z,99.99
2017-06-02T07:03:27.476Z,99.99
2017-06-02T07:04:07.968Z,99.99
2017-06-02T07:04:48.442Z,99.99
2017-06-02T07:05:28.947Z,99.99
2017-06-02T07:06:09.410Z,99.99
2017-06-02T07:06:49.887Z,99.99
2017-06-02T07:07:30.396Z,99.99
2017-06-02T07:08:10.884Z,99.99
2017-06-02T07:08:51.390Z,99.99
2017-06-02T07:09:31.907Z,99.99
2017-06-02T07:10:13.240Z,99.99
2017-06-02T07:10:54.222Z,99.99
2017-06-02T07:11:34.739Z,99.99
2017-06-02T07:12:17.059Z,99.99
2017-06-02T07:12:59.898Z,99.99
2017-06-02T07:13:40.375Z,99.99
2017-06-02T07:14:20.803Z,99.99
2017-06-02T07:15:01.279Z,99.99
2017-06-02T07:15:41.904Z,99.99
2017-06-02T07:16:22.432Z,99.99
2017-06-02T07:17:02.926Z,99.99
2017-06-02T07:17:43.423Z,99.99
2017-06-02T07:18:23.917Z,99.99
2017-06-02T07:19:06.211Z,99.99
2017-06-02T07:19:47.744Z,99.99
2017-06-02T07:20:28.229Z,99.99
2017-06-02T07:21:08.754Z,99.99
2017-06-02T07:23:34.457Z,99.99
2017-06-02T07:25:48.290Z,99.99
2017-06-02T07:26:33.176Z,99.99
2017-06-02T07:27:13.708Z,99.99
2017-06-02T07:27:54.184Z,99.99
2017-06-02T07:28:34.802Z,99.99
2017-06-02T07:29:15.296Z,99.99
2017-06-02T07:29:55.877Z,99.99
2017-06-02T07:30:36.575Z,99.99
2017-06-02T07:31:17.183Z,99.99
2017-06-02T07:31:57.802Z,99.99
2017-06-02T07:32:38.342Z,99.99
2017-06-02T07:33:19.087Z,99.99
2017-06-02T07:34:01.953Z,99.99
2017-06-02T07:34:43.391Z,99.99
2017-06-02T07:35:26.178Z,99.99
2017-06-02T07:36:06.680Z,99.99
2017-06-02T07:36:47.161Z,99.99
2017-06-02T07:37:27.677Z,99.99
2017-06-02T07:38:08.205Z,99.99
2017-06-02T07:38:48.650Z,99.48
2017-06-02T07:39:29.138Z,98.42
2017-06-02T07:40:09.631Z,96.99
2017-06-02T07:40:50.157Z,95.65
2017-06-02T07:41:30.611Z,94.93
2017-06-02T07:42:11.096Z,94.46
2017-06-02T07:42:51.583Z,94.65
2017-06-02T07:43:32.057Z,94.65
2017-06-02T07:44:12.590Z,94.36
2017-06-02T07:44:53.063Z,94.74
2017-06-02T07:45:33.605Z,94.84
2017-06-02T07:46:14.097Z,94.74
2017-06-02T07:46:54.591Z,94.07
2017-06-02T07:47:35.088Z,94.07
2017-06-02T07:48:15.556Z,93.12
2017-06-02T07:48:56.017Z,91.49
2017-06-02T07:49:36.487Z,91.3
2017-06-02T07:50:16.985Z,91.73
2017-06-02T07:50:57.484Z,92.02
2017-06-02T07:51:37.967Z,91.73
2017-06-02T07:52:18.476Z,91.44
2017-06-02T07:52:58.969Z,91.35
2017-06-02T07:53:39.440Z,91.35
2017-06-02T07:54:19.943Z,91.06
2017-06-02T07:55:00.479Z,91.06
2017-06-02T07:55:40.973Z,90.77
2017-06-02T07:56:21.465Z,90.58
2017-06-02T07:57:01.967Z,90.01
2017-06-02T07:57:42.512Z,88.29
2017-06-02T07:58:22.985Z,87.04
2017-06-02T07:59:03.494Z,85.71
2017-06-02T07:59:43.940Z,84.94
2017-06-02T08:00:24.437Z,85.61
2017-06-02T08:01:05.146Z,86.18
2017-06-02T08:01:45.605Z,86.76
2017-06-02T08:02:26.133Z,87.04
2017-06-02T08:03:06.637Z,87.23
2017-06-02T08:03:47.143Z,84.84
2017-06-02T08:04:27.683Z,83.89
2017-06-02T08:05:08.233Z,83.89
2017-06-02T08:05:48.778Z,83.89
2017-06-02T08:06:29.274Z,84.65
2017-06-02T08:07:09.850Z,84.27
2017-06-02T08:07:50.377Z,84.55
2017-06-02T08:08:30.924Z,84.46
2017-06-02T08:09:11.397Z,84.08
2017-06-02T08:09:51.875Z,83.89
2017-06-02T08:10:32.434Z,83.98
2017-06-02T08:11:12.862Z,83.03
2017-06-02T08:11:53.348Z,81.11
2017-06-02T08:12:33.844Z,78.72
2017-06-02T08:13:14.350Z,78.34
2017-06-02T08:13:54.855Z,78.81
2017-06-02T08:14:35.436Z,79.58
2017-06-02T08:15:15.903Z,80.54
2017-06-02T08:15:56.403Z,81.49
2017-06-02T08:16:36.885Z,82.17
2017-06-02T08:17:17.940Z,83.03
2017-06-02T08:17:58.479Z,83.4
2017-06-02T08:18:38.966Z,83.5
2017-06-02T08:19:19.434Z,84.36
2017-06-02T08:19:59.940Z,84.94
2017-06-02T08:20:40.433Z,85.22
2017-06-02T08:21:20.903Z,85.08
2017-06-02T08:22:01.417Z,84.98
2017-06-02T08:22:41.893Z,84.5
2017-06-02T08:23:22.400Z,83.64
2017-06-02T08:24:02.937Z,82.3
2017-06-02T08:24:43.499Z,81.48
2017-06-02T08:25:24.075Z,81
2017-06-02T08:26:04.633Z,81.86
2017-06-02T08:26:45.083Z,81.57
2017-06-02T08:27:25.617Z,81.38
2017-06-02T08:28:06.194Z,81
2017-06-02T08:28:46.683Z,80.9
2017-06-02T08:29:27.206Z,80.62
2017-06-02T08:30:07.732Z,81.48
2017-06-02T08:30:48.262Z,81.67
2017-06-02T08:31:28.769Z,81.33
2017-06-02T08:32:09.228Z,80.33
2017-06-02T08:32:49.737Z,79.47
2017-06-02T08:33:30.330Z,78.7
2017-06-02T08:34:10.816Z,78.22
2017-06-02T08:34:51.333Z,78.13
2017-06-02T08:35:31.807Z,77.75
2017-06-02T08:36:12.283Z,77.17
2017-06-02T08:36:52.816Z,77.36
2017-06-02T08:37:33.329Z,77.55
2017-06-02T08:38:13.819Z,78.22
2017-06-02T08:38:54.307Z,78.42
2017-06-02T08:39:34.791Z,78.51
2017-06-02T08:40:15.290Z,78.03
2017-06-02T08:40:55.794Z,76.82
2017-06-02T08:41:36.790Z,74.82
2017-06-02T08:42:17.230Z,73.76
2017-06-02T08:42:57.761Z,72.71
2017-06-02T08:43:38.298Z,71.66
2017-06-02T08:44:18.771Z,70.98
2017-06-02T08:44:59.275Z,70.98
2017-06-02T08:45:39.760Z,71.17
2017-06-02T08:46:20.296Z,71.02
2017-06-02T08:47:00.802Z,70.7
2017-06-02T08:47:41.315Z,70.7
2017-06-02T08:48:21.868Z,69.74
2017-06-02T08:49:02.410Z,69.35
2017-06-02T08:49:43.070Z,69.87
2017-06-02T08:50:23.638Z,70.35
2017-06-02T08:51:04.075Z,70.54
2017-06-02T08:51:44.654Z,70.25
2017-06-02T08:52:25.205Z,69.2
2017-06-02T08:53:05.669Z,69.68
2017-06-02T08:53:46.177Z,71.11
2017-06-02T08:54:26.671Z,72.07
2017-06-02T08:55:07.163Z,71.69
2017-06-02T08:55:47.725Z,70.83
2017-06-02T08:56:28.179Z,70.64
2017-06-02T08:57:08.759Z,70.35
2017-06-02T08:57:49.412Z,70.44
2017-06-02T08:58:30.050Z,70.54
2017-06-02T08:59:10.486Z,70.73
2017-06-02T08:59:50.984Z,70.73
2017-06-02T09:00:31.522Z,70.64
2017-06-02T09:01:12.041Z,71.4
2017-06-02T09:01:52.680Z,71.02
2017-06-02T09:02:33.192Z,70.25
2017-06-02T09:03:13.730Z,70.09
2017-06-02T09:03:54.246Z,69.71
2017-06-02T09:04:34.847Z,69.71
2017-06-02T09:05:15.309Z,69.81
2017-06-02T09:05:55.875Z,69.23
2017-06-02T09:06:36.425Z,68.27
2017-06-02T09:07:16.878Z,67.22
2017-06-02T09:07:57.448Z,66.77
2017-06-02T09:08:37.921Z,66.96
2017-06-02T09:09:18.421Z,66.96
2017-06-02T09:09:58.894Z,66.77
2017-06-02T09:10:39.431Z,65.91
2017-06-02T09:11:19.898Z,62.84
2017-06-02T09:12:00.574Z,61.11
2017-06-02T09:12:41.091Z,60.35
2017-06-02T09:13:21.584Z,58.52
2017-06-02T09:14:02.071Z,57.37